Platzwetter & Webcam am Flugplatz Wels

Flugwetter Linz LOWL

[Quelle: ADDS]
METAR
LOWL 200320Z AUTO 08002KT 4900 -SN FEW020 BKN024 M01/M03 Q1015 =
TAF
LOWL 192315Z 2000/2024 VRB02KT 6000 SCT015 BKN025 TX01/2014Z TNM03/2000Z TEMPO 2000/2006 VRB02KT 3000 BR SCT020 TEMPO 2006/2024 09005KT 2000 -SN BKN015 PROB30 TEMPO 2014/2024 1200 SN VV008 =

Flugwetter Salzburg LOWS

[Quelle: ADDS]
METAR
LOWS 200320Z AUTO 10003KT 070V130 5000 -FZRASN FEW034 BKN036 M02/M03 Q1014 =
TAF
LOWS 192315Z 2000/2024 15004KT 9999 FEW012 BKN018 TX02/2012Z TNM03/2003Z TEMPO 2000/2024 4000 -SN BR BKN012 PROB30 TEMPO 2003/2009 1200 SN BKN009 BECMG 2009/2011 01005KT PROB40 TEMPO 2018/2024 0600 SN VV006 =

Webcam - letzten 24 Stunden

  • 0
  • 1
  • 2
  • 3
  • 4
  • 5
  • 6
  • 7
  • 8
  • 9
  • 10
  • 11
  • 12
  • 13
  • 14
  • 15
  • 16
  • 17
  • 18
  • 19
  • 20
  • 21
  • 22
  • 23

    Wind - Verlauf

    Windrichtung - Verlauf

    Temperatur - Verlauf

    Relative Luftfeuchtigkeit - Verlauf

    Luftdruck - Verlauf


    JU 52 Nostalgie-Rundflüge - hier am Flugplatz Wels!

    Tickets, Termine und Infos, hier am Flugplatz Wels. Tickethotline +43 7242 26499 0

    Pilot für einen Tag - Erfülle Dir den Traum vom Fliegen!

    Werde einen Tag lang Pilot bei und mit dem Fliegerclub Weiße Möwe in Wels!

    Stadt - Wels

    Ausflugsziele & Sehenswürdigkeiten
    in Wels und Umgebung